sensor_id;sensor_type;location;lat;lon;timestamp;P1;durP1;ratioP1;P2;durP2;ratioP2
70313;SDS011;71040;47.526;18.986;2023-10-31T00:00:19;3.33;;;1.92;;
70313;SDS011;71040;47.526;18.986;2023-10-31T00:05:19;3.33;;;2.00;;
70313;SDS011;71040;47.526;18.986;2023-10-31T00:10:20;3.33;;;1.60;;
70313;SDS011;71040;47.526;18.986;2023-10-31T00:15:22;3.92;;;2.22;;
70313;SDS011;71040;47.526;18.986;2023-10-31T00:20:24;4.50;;;2.35;;
70313;SDS011;71040;47.526;18.986;2023-10-31T00:25:25;4.03;;;1.93;;
70313;SDS011;71040;47.526;18.986;2023-10-31T00:30:25;3.17;;;1.87;;
70313;SDS011;71040;47.526;18.986;2023-10-31T00:35:25;4.37;;;2.30;;
70313;SDS011;71040;47.526;18.986;2023-10-31T00:40:28;4.95;;;2.10;;
70313;SDS011;71040;47.526;18.986;2023-10-31T00:45:31;2.70;;;1.83;;
70313;SDS011;71040;47.526;18.986;2023-10-31T00:50:34;2.30;;;1.73;;
70313;SDS011;71040;47.526;18.986;2023-10-31T00:55:34;3.07;;;2.10;;
70313;SDS011;71040;47.526;18.986;2023-10-31T01:00:34;4.37;;;2.00;;
70313;SDS011;71040;47.526;18.986;2023-10-31T01:05:37;3.65;;;2.15;;
70313;SDS011;71040;47.526;18.986;2023-10-31T01:10:37;2.77;;;2.03;;
70313;SDS011;71040;47.526;18.986;2023-10-31T01:15:38;3.50;;;2.50;;
70313;SDS011;71040;47.526;18.986;2023-10-31T01:20:38;3.10;;;2.30;;
70313;SDS011;71040;47.526;18.986;2023-10-31T01:25:39;3.63;;;2.13;;
70313;SDS011;71040;47.526;18.986;2023-10-31T01:30:39;4.23;;;2.70;;
70313;SDS011;71040;47.526;18.986;2023-10-31T01:35:39;4.07;;;2.37;;
70313;SDS011;71040;47.526;18.986;2023-10-31T01:40:40;3.23;;;2.13;;
70313;SDS011;71040;47.526;18.986;2023-10-31T01:45:43;4.72;;;2.90;;
70313;SDS011;71040;47.526;18.986;2023-10-31T01:50:45;4.85;;;2.50;;
70313;SDS011;71040;47.526;18.986;2023-10-31T01:55:46;4.28;;;2.50;;
70313;SDS011;71040;47.526;18.986;2023-10-31T02:00:46;4.13;;;2.25;;
70313;SDS011;71040;47.526;18.986;2023-10-31T02:05:47;3.63;;;2.03;;
70313;SDS011;71040;47.526;18.986;2023-10-31T02:10:47;4.53;;;3.03;;
70313;SDS011;71040;47.526;18.986;2023-10-31T02:15:48;4.47;;;2.37;;
70313;SDS011;71040;47.526;18.986;2023-10-31T02:20:51;3.50;;;2.15;;
70313;SDS011;71040;47.526;18.986;2023-10-31T02:25:51;4.18;;;2.70;;
70313;SDS011;71040;47.526;18.986;2023-10-31T02:30:51;4.13;;;2.70;;
70313;SDS011;71040;47.526;18.986;2023-10-31T02:35:52;4.70;;;3.30;;
70313;SDS011;71040;47.526;18.986;2023-10-31T02:40:57;5.38;;;3.00;;
70313;SDS011;71040;47.526;18.986;2023-10-31T02:45:57;7.03;;;2.67;;
70313;SDS011;71040;47.526;18.986;2023-10-31T02:50:57;4.00;;;2.93;;
70313;SDS011;71040;47.526;18.986;2023-10-31T02:55:58;5.17;;;3.10;;
70313;SDS011;71040;47.526;18.986;2023-10-31T03:00:58;4.07;;;2.87;;
70313;SDS011;71040;47.526;18.986;2023-10-31T03:05:59;5.70;;;3.40;;
70313;SDS011;71040;47.526;18.986;2023-10-31T03:10:59;4.10;;;2.90;;
70313;SDS011;71040;47.526;18.986;2023-10-31T03:15:59;6.00;;;3.17;;
70313;SDS011;71040;47.526;18.986;2023-10-31T03:21:00;5.30;;;2.93;;
70313;SDS011;71040;47.526;18.986;2023-10-31T03:26:00;5.87;;;3.53;;
70313;SDS011;71040;47.526;18.986;2023-10-31T03:31:03;4.72;;;2.88;;
70313;SDS011;71040;47.526;18.986;2023-10-31T03:36:04;3.80;;;2.67;;
70313;SDS011;71040;47.526;18.986;2023-10-31T03:41:05;6.80;;;3.40;;
70313;SDS011;71040;47.526;18.986;2023-10-31T03:46:05;4.68;;;3.55;;
70313;SDS011;71040;47.526;18.986;2023-10-31T03:51:09;4.40;;;3.40;;
70313;SDS011;71040;47.526;18.986;2023-10-31T03:56:12;5.25;;;3.30;;
70313;SDS011;71040;47.526;18.986;2023-10-31T04:01:12;5.30;;;3.17;;
70313;SDS011;71040;47.526;18.986;2023-10-31T04:06:13;5.77;;;3.53;;
70313;SDS011;71040;47.526;18.986;2023-10-31T04:11:13;5.27;;;3.43;;
70313;SDS011;71040;47.526;18.986;2023-10-31T04:16:13;5.33;;;3.93;;
70313;SDS011;71040;47.526;18.986;2023-10-31T04:21:16;5.82;;;3.60;;
70313;SDS011;71040;47.526;18.986;2023-10-31T04:26:19;4.97;;;3.43;;
70313;SDS011;71040;47.526;18.986;2023-10-31T04:31:22;4.85;;;3.20;;
70313;SDS011;71040;47.526;18.986;2023-10-31T04:36:24;8.18;;;4.25;;
70313;SDS011;71040;47.526;18.986;2023-10-31T04:41:25;5.83;;;3.90;;
70313;SDS011;71040;47.526;18.986;2023-10-31T04:46:25;3.93;;;3.23;;
70313;SDS011;71040;47.526;18.986;2023-10-31T04:51:27;5.60;;;3.83;;
70313;SDS011;71040;47.526;18.986;2023-10-31T04:56:27;5.25;;;3.53;;
70313;SDS011;71040;47.526;18.986;2023-10-31T05:01:28;5.32;;;3.50;;
70313;SDS011;71040;47.526;18.986;2023-10-31T05:06:30;4.72;;;3.38;;
70313;SDS011;71040;47.526;18.986;2023-10-31T05:11:31;4.50;;;3.30;;
70313;SDS011;71040;47.526;18.986;2023-10-31T05:16:31;5.50;;;3.83;;
70313;SDS011;71040;47.526;18.986;2023-10-31T05:21:31;5.13;;;3.80;;
70313;SDS011;71040;47.526;18.986;2023-10-31T05:26:35;5.00;;;3.65;;
70313;SDS011;71040;47.526;18.986;2023-10-31T05:31:35;5.93;;;4.22;;
70313;SDS011;71040;47.526;18.986;2023-10-31T05:36:38;5.22;;;4.10;;
70313;SDS011;71040;47.526;18.986;2023-10-31T05:41:38;5.90;;;3.97;;
70313;SDS011;71040;47.526;18.986;2023-10-31T05:46:39;4.83;;;3.57;;
70313;SDS011;71040;47.526;18.986;2023-10-31T05:51:39;6.03;;;3.88;;
70313;SDS011;71040;47.526;18.986;2023-10-31T05:56:40;6.50;;;4.23;;
70313;SDS011;71040;47.526;18.986;2023-10-31T06:01:44;5.72;;;4.05;;
70313;SDS011;71040;47.526;18.986;2023-10-31T06:06:45;5.57;;;3.97;;
70313;SDS011;71040;47.526;18.986;2023-10-31T06:11:52;6.45;;;3.88;;
70313;SDS011;71040;47.526;18.986;2023-10-31T06:16:52;5.23;;;3.30;;
70313;SDS011;71040;47.526;18.986;2023-10-31T06:21:53;4.55;;;3.20;;
70313;SDS011;71040;47.526;18.986;2023-10-31T06:26:54;4.70;;;3.33;;
70313;SDS011;71040;47.526;18.986;2023-10-31T06:31:56;4.67;;;3.03;;
70313;SDS011;71040;47.526;18.986;2023-10-31T06:36:59;5.35;;;3.30;;
70313;SDS011;71040;47.526;18.986;2023-10-31T06:42:00;4.40;;;3.40;;
70313;SDS011;71040;47.526;18.986;2023-10-31T06:47:00;4.47;;;3.27;;
70313;SDS011;71040;47.526;18.986;2023-10-31T06:52:00;3.47;;;2.73;;
70313;SDS011;71040;47.526;18.986;2023-10-31T06:57:01;4.73;;;3.67;;
70313;SDS011;71040;47.526;18.986;2023-10-31T07:02:04;4.47;;;2.95;;
70313;SDS011;71040;47.526;18.986;2023-10-31T07:07:07;5.63;;;3.17;;
70313;SDS011;71040;47.526;18.986;2023-10-31T07:12:10;4.70;;;2.95;;
70313;SDS011;71040;47.526;18.986;2023-10-31T07:17:13;4.67;;;2.87;;
70313;SDS011;71040;47.526;18.986;2023-10-31T07:22:16;4.32;;;2.55;;
70313;SDS011;71040;47.526;18.986;2023-10-31T07:27:17;3.92;;;2.58;;
70313;SDS011;71040;47.526;18.986;2023-10-31T07:32:18;2.85;;;2.00;;
70313;SDS011;71040;47.526;18.986;2023-10-31T07:37:18;2.97;;;1.83;;
70313;SDS011;71040;47.526;18.986;2023-10-31T07:42:18;2.97;;;2.10;;
70313;SDS011;71040;47.526;18.986;2023-10-31T07:47:26;3.95;;;2.58;;
70313;SDS011;71040;47.526;18.986;2023-10-31T07:52:28;3.10;;;2.03;;
70313;SDS011;71040;47.526;18.986;2023-10-31T07:57:29;2.67;;;1.77;;
70313;SDS011;71040;47.526;18.986;2023-10-31T08:02:29;2.40;;;1.60;;
70313;SDS011;71040;47.526;18.986;2023-10-31T08:07:37;2.50;;;1.63;;
70313;SDS011;71040;47.526;18.986;2023-10-31T08:12:44;3.40;;;1.55;;
70313;SDS011;71040;47.526;18.986;2023-10-31T08:17:44;2.73;;;1.50;;
70313;SDS011;71040;47.526;18.986;2023-10-31T08:22:45;2.20;;;1.23;;
70313;SDS011;71040;47.526;18.986;2023-10-31T08:27:45;2.13;;;1.20;;
70313;SDS011;71040;47.526;18.986;2023-10-31T08:32:46;2.00;;;1.33;;
70313;SDS011;71040;47.526;18.986;2023-10-31T08:37:46;2.47;;;1.20;;
70313;SDS011;71040;47.526;18.986;2023-10-31T08:42:46;1.90;;;1.10;;
70313;SDS011;71040;47.526;18.986;2023-10-31T08:47:47;2.13;;;1.70;;
70313;SDS011;71040;47.526;18.986;2023-10-31T08:52:47;2.63;;;1.40;;
70313;SDS011;71040;47.526;18.986;2023-10-31T08:57:48;3.53;;;1.10;;
70313;SDS011;71040;47.526;18.986;2023-10-31T09:02:48;2.87;;;1.33;;
70313;SDS011;71040;47.526;18.986;2023-10-31T09:07:55;1.60;;;1.03;;
70313;SDS011;71040;47.526;18.986;2023-10-31T09:12:55;2.28;;;1.02;;
70313;SDS011;71040;47.526;18.986;2023-10-31T09:17:55;2.37;;;1.07;;
70313;SDS011;71040;47.526;18.986;2023-10-31T09:22:58;3.53;;;1.37;;
70313;SDS011;71040;47.526;18.986;2023-10-31T09:27:59;2.17;;;1.13;;
70313;SDS011;71040;47.526;18.986;2023-10-31T09:33:00;3.05;;;1.25;;
70313;SDS011;71040;47.526;18.986;2023-10-31T09:38:00;1.50;;;1.00;;
70313;SDS011;71040;47.526;18.986;2023-10-31T09:43:01;2.13;;;1.07;;
70313;SDS011;71040;47.526;18.986;2023-10-31T09:48:01;1.93;;;0.93;;
70313;SDS011;71040;47.526;18.986;2023-10-31T09:53:02;1.42;;;0.88;;
70313;SDS011;71040;47.526;18.986;2023-10-31T09:58:05;2.63;;;1.00;;
70313;SDS011;71040;47.526;18.986;2023-10-31T10:03:09;1.93;;;0.80;;
70313;SDS011;71040;47.526;18.986;2023-10-31T10:08:09;3.08;;;1.45;;
70313;SDS011;71040;47.526;18.986;2023-10-31T10:13:10;2.30;;;0.90;;
70313;SDS011;71040;47.526;18.986;2023-10-31T10:18:23;1.65;;;0.90;;
70313;SDS011;71040;47.526;18.986;2023-10-31T10:23:25;3.22;;;1.33;;
70313;SDS011;71040;47.526;18.986;2023-10-31T10:28:26;1.45;;;0.85;;
70313;SDS011;71040;47.526;18.986;2023-10-31T10:33:27;1.42;;;0.82;;
70313;SDS011;71040;47.526;18.986;2023-10-31T10:38:29;1.70;;;0.87;;
70313;SDS011;71040;47.526;18.986;2023-10-31T10:43:37;1.52;;;0.80;;
70313;SDS011;71040;47.526;18.986;2023-10-31T10:48:38;1.52;;;0.70;;
70313;SDS011;71040;47.526;18.986;2023-10-31T10:53:50;2.17;;;1.15;;
70313;SDS011;71040;47.526;18.986;2023-10-31T10:58:58;2.97;;;0.95;;
70313;SDS011;71040;47.526;18.986;2023-10-31T11:04:03;2.00;;;0.60;;
70313;SDS011;71040;47.526;18.986;2023-10-31T11:09:05;3.47;;;0.80;;
70313;SDS011;71040;47.526;18.986;2023-10-31T11:14:09;2.78;;;0.90;;
70313;SDS011;71040;47.526;18.986;2023-10-31T11:19:09;1.53;;;0.50;;
70313;SDS011;71040;47.526;18.986;2023-10-31T11:24:11;4.38;;;1.25;;
70313;SDS011;71040;47.526;18.986;2023-10-31T11:29:11;1.07;;;0.50;;
70313;SDS011;71040;47.526;18.986;2023-10-31T11:34:12;1.60;;;0.70;;
70313;SDS011;71040;47.526;18.986;2023-10-31T11:39:13;1.30;;;0.50;;
70313;SDS011;71040;47.526;18.986;2023-10-31T11:44:16;1.20;;;0.52;;
70313;SDS011;71040;47.526;18.986;2023-10-31T11:49:16;3.40;;;1.60;;
70313;SDS011;71040;47.526;18.986;2023-10-31T11:54:37;2.78;;;1.30;;
70313;SDS011;71040;47.526;18.986;2023-10-31T11:59:38;1.70;;;1.10;;
70313;SDS011;71040;47.526;18.986;2023-10-31T12:04:39;2.20;;;1.20;;
70313;SDS011;71040;47.526;18.986;2023-10-31T12:09:48;2.83;;;1.40;;
70313;SDS011;71040;47.526;18.986;2023-10-31T12:14:48;1.92;;;1.30;;
70313;SDS011;71040;47.526;18.986;2023-10-31T12:19:49;3.03;;;1.40;;
70313;SDS011;71040;47.526;18.986;2023-10-31T12:25:05;4.05;;;1.58;;
70313;SDS011;71040;47.526;18.986;2023-10-31T12:30:09;4.57;;;1.58;;
70313;SDS011;71040;47.526;18.986;2023-10-31T12:35:20;2.45;;;1.38;;
70313;SDS011;71040;47.526;18.986;2023-10-31T12:40:22;5.68;;;1.75;;
70313;SDS011;71040;47.526;18.986;2023-10-31T12:45:23;3.00;;;1.55;;
70313;SDS011;71040;47.526;18.986;2023-10-31T12:50:24;2.70;;;1.13;;
70313;SDS011;71040;47.526;18.986;2023-10-31T12:55:27;3.28;;;1.80;;
70313;SDS011;71040;47.526;18.986;2023-10-31T13:00:32;3.05;;;1.45;;
70313;SDS011;71040;47.526;18.986;2023-10-31T13:05:34;3.65;;;1.92;;
70313;SDS011;71040;47.526;18.986;2023-10-31T13:10:36;4.40;;;1.42;;
70313;SDS011;71040;47.526;18.986;2023-10-31T13:15:36;2.87;;;1.57;;
70313;SDS011;71040;47.526;18.986;2023-10-31T13:20:37;4.70;;;1.70;;
70313;SDS011;71040;47.526;18.986;2023-10-31T13:25:40;3.22;;;1.42;;
70313;SDS011;71040;47.526;18.986;2023-10-31T13:30:40;2.73;;;1.37;;
70313;SDS011;71040;47.526;18.986;2023-10-31T13:35:41;2.25;;;1.38;;
70313;SDS011;71040;47.526;18.986;2023-10-31T13:40:43;3.67;;;1.63;;
70313;SDS011;71040;47.526;18.986;2023-10-31T13:45:44;2.33;;;1.42;;
70313;SDS011;71040;47.526;18.986;2023-10-31T13:50:44;3.07;;;1.20;;
70313;SDS011;71040;47.526;18.986;2023-10-31T13:55:46;3.53;;;1.35;;
70313;SDS011;71040;47.526;18.986;2023-10-31T14:00:46;3.07;;;1.20;;
70313;SDS011;71040;47.526;18.986;2023-10-31T14:05:46;3.33;;;1.47;;
70313;SDS011;71040;47.526;18.986;2023-10-31T14:10:47;2.27;;;1.33;;
70313;SDS011;71040;47.526;18.986;2023-10-31T14:15:48;2.28;;;1.10;;
70313;SDS011;71040;47.526;18.986;2023-10-31T14:20:48;1.63;;;1.10;;
70313;SDS011;71040;47.526;18.986;2023-10-31T14:25:51;2.27;;;0.97;;
70313;SDS011;71040;47.526;18.986;2023-10-31T14:30:52;2.47;;;1.27;;
70313;SDS011;71040;47.526;18.986;2023-10-31T14:35:53;2.25;;;1.02;;
70313;SDS011;71040;47.526;18.986;2023-10-31T14:40:54;3.60;;;0.90;;
70313;SDS011;71040;47.526;18.986;2023-10-31T14:45:54;1.77;;;0.90;;
70313;SDS011;71040;47.526;18.986;2023-10-31T14:50:57;1.98;;;0.95;;
70313;SDS011;71040;47.526;18.986;2023-10-31T14:55:58;2.70;;;0.93;;
70313;SDS011;71040;47.526;18.986;2023-10-31T15:01:02;2.20;;;1.00;;
70313;SDS011;71040;47.526;18.986;2023-10-31T15:06:06;1.38;;;0.70;;
70313;SDS011;71040;47.526;18.986;2023-10-31T15:11:07;1.42;;;0.52;;
70313;SDS011;71040;47.526;18.986;2023-10-31T15:16:08;1.70;;;0.70;;
70313;SDS011;71040;47.526;18.986;2023-10-31T15:21:08;0.88;;;0.45;;
70313;SDS011;71040;47.526;18.986;2023-10-31T15:26:11;1.60;;;0.55;;
70313;SDS011;71040;47.526;18.986;2023-10-31T15:31:13;1.15;;;0.73;;
70313;SDS011;71040;47.526;18.986;2023-10-31T15:36:13;1.92;;;0.60;;
70313;SDS011;71040;47.526;18.986;2023-10-31T15:41:14;2.27;;;0.80;;
70313;SDS011;71040;47.526;18.986;2023-10-31T15:46:15;1.02;;;0.57;;
70313;SDS011;71040;47.526;18.986;2023-10-31T15:51:18;1.42;;;0.70;;
70313;SDS011;71040;47.526;18.986;2023-10-31T15:56:18;0.83;;;0.30;;
70313;SDS011;71040;47.526;18.986;2023-10-31T16:01:21;2.15;;;0.40;;
70313;SDS011;71040;47.526;18.986;2023-10-31T16:06:22;1.40;;;0.47;;
70313;SDS011;71040;47.526;18.986;2023-10-31T16:11:24;0.98;;;0.50;;
70313;SDS011;71040;47.526;18.986;2023-10-31T16:16:34;0.80;;;0.40;;
70313;SDS011;71040;47.526;18.986;2023-10-31T16:21:35;1.15;;;0.50;;
70313;SDS011;71040;47.526;18.986;2023-10-31T16:26:35;0.70;;;0.40;;
70313;SDS011;71040;47.526;18.986;2023-10-31T16:31:35;1.20;;;0.60;;
70313;SDS011;71040;47.526;18.986;2023-10-31T16:36:36;1.33;;;0.45;;
70313;SDS011;71040;47.526;18.986;2023-10-31T16:41:43;1.05;;;0.50;;
70313;SDS011;71040;47.526;18.986;2023-10-31T16:46:43;1.25;;;0.40;;
70313;SDS011;71040;47.526;18.986;2023-10-31T16:51:45;0.32;;;0.20;;
70313;SDS011;71040;47.526;18.986;2023-10-31T16:56:45;2.00;;;0.30;;
70313;SDS011;71040;47.526;18.986;2023-10-31T17:01:46;0.60;;;0.33;;
70313;SDS011;71040;47.526;18.986;2023-10-31T17:06:46;0.75;;;0.38;;
70313;SDS011;71040;47.526;18.986;2023-10-31T17:11:49;1.38;;;0.65;;
70313;SDS011;71040;47.526;18.986;2023-10-31T17:16:50;0.65;;;0.30;;
70313;SDS011;71040;47.526;18.986;2023-10-31T17:21:50;0.23;;;0.20;;
70313;SDS011;71040;47.526;18.986;2023-10-31T17:26:52;0.80;;;0.40;;
70313;SDS011;71040;47.526;18.986;2023-10-31T17:31:59;0.40;;;0.25;;
70313;SDS011;71040;47.526;18.986;2023-10-31T17:36:59;0.57;;;0.30;;
70313;SDS011;71040;47.526;18.986;2023-10-31T17:42:01;0.98;;;0.50;;
70313;SDS011;71040;47.526;18.986;2023-10-31T17:47:02;0.60;;;0.40;;
70313;SDS011;71040;47.526;18.986;2023-10-31T17:52:03;0.65;;;0.30;;
70313;SDS011;71040;47.526;18.986;2023-10-31T17:57:04;0.77;;;0.20;;
70313;SDS011;71040;47.526;18.986;2023-10-31T18:02:06;0.63;;;0.40;;
70313;SDS011;71040;47.526;18.986;2023-10-31T18:07:06;0.63;;;0.30;;
70313;SDS011;71040;47.526;18.986;2023-10-31T18:12:07;0.77;;;0.27;;
70313;SDS011;71040;47.526;18.986;2023-10-31T18:17:12;0.73;;;0.40;;
70313;SDS011;71040;47.526;18.986;2023-10-31T18:22:13;1.33;;;0.30;;
70313;SDS011;71040;47.526;18.986;2023-10-31T18:27:24;0.73;;;0.30;;
70313;SDS011;71040;47.526;18.986;2023-10-31T18:32:25;1.00;;;0.30;;
70313;SDS011;71040;47.526;18.986;2023-10-31T18:37:28;0.30;;;0.30;;
70313;SDS011;71040;47.526;18.986;2023-10-31T18:42:33;0.70;;;0.30;;
70313;SDS011;71040;47.526;18.986;2023-10-31T18:47:33;0.57;;;0.30;;
70313;SDS011;71040;47.526;18.986;2023-10-31T18:52:34;1.13;;;0.30;;
70313;SDS011;71040;47.526;18.986;2023-10-31T18:57:37;1.92;;;0.40;;
70313;SDS011;71040;47.526;18.986;2023-10-31T19:02:38;1.25;;;0.30;;
70313;SDS011;71040;47.526;18.986;2023-10-31T19:07:38;0.40;;;0.20;;
70313;SDS011;71040;47.526;18.986;2023-10-31T19:12:41;0.95;;;0.30;;
70313;SDS011;71040;47.526;18.986;2023-10-31T19:17:41;0.63;;;0.20;;
70313;SDS011;71040;47.526;18.986;2023-10-31T19:22:44;0.80;;;0.30;;
70313;SDS011;71040;47.526;18.986;2023-10-31T19:27:45;0.40;;;0.20;;
70313;SDS011;71040;47.526;18.986;2023-10-31T19:32:45;0.50;;;0.20;;
70313;SDS011;71040;47.526;18.986;2023-10-31T19:37:48;0.63;;;0.10;;
70313;SDS011;71040;47.526;18.986;2023-10-31T19:42:49;0.20;;;0.10;;
70313;SDS011;71040;47.526;18.986;2023-10-31T19:47:54;1.50;;;0.10;;
70313;SDS011;71040;47.526;18.986;2023-10-31T19:52:55;0.32;;;0.20;;
70313;SDS011;71040;47.526;18.986;2023-10-31T19:57:56;0.50;;;0.20;;
70313;SDS011;71040;47.526;18.986;2023-10-31T20:02:56;0.45;;;0.20;;
70313;SDS011;71040;47.526;18.986;2023-10-31T20:07:59;0.73;;;0.20;;
70313;SDS011;71040;47.526;18.986;2023-10-31T20:12:59;0.43;;;0.40;;
70313;SDS011;71040;47.526;18.986;2023-10-31T20:18:02;0.65;;;0.10;;
70313;SDS011;71040;47.526;18.986;2023-10-31T20:23:02;0.40;;;0.13;;
70313;SDS011;71040;47.526;18.986;2023-10-31T20:28:02;0.50;;;0.20;;
70313;SDS011;71040;47.526;18.986;2023-10-31T20:33:06;0.40;;;0.20;;
70313;SDS011;71040;47.526;18.986;2023-10-31T20:38:06;0.53;;;0.20;;
70313;SDS011;71040;47.526;18.986;2023-10-31T20:43:07;0.60;;;0.27;;
70313;SDS011;71040;47.526;18.986;2023-10-31T20:48:08;0.45;;;0.20;;
70313;SDS011;71040;47.526;18.986;2023-10-31T20:53:09;0.50;;;0.20;;
70313;SDS011;71040;47.526;18.986;2023-10-31T20:58:09;0.38;;;0.15;;
70313;SDS011;71040;47.526;18.986;2023-10-31T21:03:11;0.50;;;0.30;;
70313;SDS011;71040;47.526;18.986;2023-10-31T21:08:12;0.70;;;0.20;;
70313;SDS011;71040;47.526;18.986;2023-10-31T21:13:12;0.67;;;0.20;;
70313;SDS011;71040;47.526;18.986;2023-10-31T21:18:12;0.83;;;0.20;;
70313;SDS011;71040;47.526;18.986;2023-10-31T21:23:16;0.40;;;0.20;;
70313;SDS011;71040;47.526;18.986;2023-10-31T21:28:16;0.40;;;0.20;;
70313;SDS011;71040;47.526;18.986;2023-10-31T21:33:19;0.47;;;0.27;;
70313;SDS011;71040;47.526;18.986;2023-10-31T21:38:22;0.30;;;0.20;;
70313;SDS011;71040;47.526;18.986;2023-10-31T21:43:23;0.50;;;0.17;;
70313;SDS011;71040;47.526;18.986;2023-10-31T21:48:25;0.50;;;0.20;;
70313;SDS011;71040;47.526;18.986;2023-10-31T21:53:28;0.50;;;0.20;;
70313;SDS011;71040;47.526;18.986;2023-10-31T21:58:31;0.70;;;0.30;;
70313;SDS011;71040;47.526;18.986;2023-10-31T22:03:31;0.60;;;0.30;;
70313;SDS011;71040;47.526;18.986;2023-10-31T22:08:32;1.93;;;0.30;;
70313;SDS011;71040;47.526;18.986;2023-10-31T22:13:32;1.25;;;0.30;;
70313;SDS011;71040;47.526;18.986;2023-10-31T22:18:32;1.70;;;0.27;;
70313;SDS011;71040;47.526;18.986;2023-10-31T22:23:35;0.63;;;0.30;;
70313;SDS011;71040;47.526;18.986;2023-10-31T22:28:41;0.82;;;0.43;;
70313;SDS011;71040;47.526;18.986;2023-10-31T22:33:44;0.40;;;0.20;;
70313;SDS011;71040;47.526;18.986;2023-10-31T22:38:47;1.30;;;0.40;;
70313;SDS011;71040;47.526;18.986;2023-10-31T22:43:49;0.47;;;0.22;;
70313;SDS011;71040;47.526;18.986;2023-10-31T22:48:52;0.38;;;0.28;;
70313;SDS011;71040;47.526;18.986;2023-10-31T22:53:55;0.50;;;0.20;;
70313;SDS011;71040;47.526;18.986;2023-10-31T22:58:58;0.40;;;0.30;;
70313;SDS011;71040;47.526;18.986;2023-10-31T23:03:59;0.52;;;0.20;;
70313;SDS011;71040;47.526;18.986;2023-10-31T23:08:59;0.85;;;0.40;;
70313;SDS011;71040;47.526;18.986;2023-10-31T23:14:00;0.80;;;0.30;;
70313;SDS011;71040;47.526;18.986;2023-10-31T23:19:00;1.20;;;0.60;;
70313;SDS011;71040;47.526;18.986;2023-10-31T23:24:01;0.40;;;0.20;;
70313;SDS011;71040;47.526;18.986;2023-10-31T23:29:01;0.80;;;0.40;;
70313;SDS011;71040;47.526;18.986;2023-10-31T23:34:04;0.90;;;0.25;;
70313;SDS011;71040;47.526;18.986;2023-10-31T23:39:04;2.43;;;0.33;;
70313;SDS011;71040;47.526;18.986;2023-10-31T23:44:05;0.50;;;0.30;;
70313;SDS011;71040;47.526;18.986;2023-10-31T23:49:05;1.03;;;0.30;;
70313;SDS011;71040;47.526;18.986;2023-10-31T23:54:05;0.70;;;0.20;;
70313;SDS011;71040;47.526;18.986;2023-10-31T23:59:06;0.73;;;0.20;;
